sensor_id;sensor_type;location;lat;lon;timestamp;temperature;humidity
19968;DHT22;10145;49.152;9.282;2024-02-15T00:01:39;10.00;99.90
19968;DHT22;10145;49.152;9.282;2024-02-15T00:04:04;10.10;99.90
19968;DHT22;10145;49.152;9.282;2024-02-15T00:06:31;10.10;99.90
19968;DHT22;10145;49.152;9.282;2024-02-15T00:08:56;10.10;99.90
19968;DHT22;10145;49.152;9.282;2024-02-15T00:11:22;10.10;99.90
19968;DHT22;10145;49.152;9.282;2024-02-15T00:13:47;10.10;99.90
19968;DHT22;10145;49.152;9.282;2024-02-15T00:16:14;10.10;99.90
19968;DHT22;10145;49.152;9.282;2024-02-15T00:18:40;10.00;99.90
19968;DHT22;10145;49.152;9.282;2024-02-15T00:21:05;10.00;99.90
19968;DHT22;10145;49.152;9.282;2024-02-15T00:23:31;9.90;99.90
19968;DHT22;10145;49.152;9.282;2024-02-15T00:25:57;9.90;99.90
19968;DHT22;10145;49.152;9.282;2024-02-15T00:28:23;9.80;99.90
19968;DHT22;10145;49.152;9.282;2024-02-15T00:30:49;9.70;99.90
19968;DHT22;10145;49.152;9.282;2024-02-15T00:33:15;9.70;99.90
19968;DHT22;10145;49.152;9.282;2024-02-15T00:35:42;9.60;99.90
19968;DHT22;10145;49.152;9.282;2024-02-15T00:38:07;9.60;99.90
19968;DHT22;10145;49.152;9.282;2024-02-15T00:40:33;9.60;99.90
19968;DHT22;10145;49.152;9.282;2024-02-15T00:42:58;9.60;99.90
19968;DHT22;10145;49.152;9.282;2024-02-15T00:45:24;9.60;99.90
19968;DHT22;10145;49.152;9.282;2024-02-15T00:47:50;9.70;99.90
19968;DHT22;10145;49.152;9.282;2024-02-15T00:50:16;9.70;99.90
19968;DHT22;10145;49.152;9.282;2024-02-15T00:52:41;9.80;99.90
19968;DHT22;10145;49.152;9.282;2024-02-15T00:55:07;9.80;99.90
19968;DHT22;10145;49.152;9.282;2024-02-15T00:57:32;9.90;99.90
19968;DHT22;10145;49.152;9.282;2024-02-15T00:59:58;9.80;99.90
19968;DHT22;10145;49.152;9.282;2024-02-15T01:02:25;9.80;99.90
19968;DHT22;10145;49.152;9.282;2024-02-15T01:04:51;9.80;99.90
19968;DHT22;10145;49.152;9.282;2024-02-15T01:07:19;9.80;99.90
19968;DHT22;10145;49.152;9.282;2024-02-15T01:09:44;9.80;99.90
19968;DHT22;10145;49.152;9.282;2024-02-15T01:12:10;9.80;99.90
19968;DHT22;10145;49.152;9.282;2024-02-15T01:14:37;9.80;99.90
19968;DHT22;10145;49.152;9.282;2024-02-15T01:17:02;9.70;99.90
19968;DHT22;10145;49.152;9.282;2024-02-15T01:19:29;9.70;99.90
19968;DHT22;10145;49.152;9.282;2024-02-15T01:21:54;9.70;99.90
19968;DHT22;10145;49.152;9.282;2024-02-15T01:24:20;9.70;99.90
19968;DHT22;10145;49.152;9.282;2024-02-15T01:26:45;9.70;99.90
19968;DHT22;10145;49.152;9.282;2024-02-15T01:29:13;9.70;99.90
19968;DHT22;10145;49.152;9.282;2024-02-15T01:31:38;9.60;99.90
19968;DHT22;10145;49.152;9.282;2024-02-15T01:34:04;9.60;99.90
19968;DHT22;10145;49.152;9.282;2024-02-15T01:36:30;9.60;99.90
19968;DHT22;10145;49.152;9.282;2024-02-15T01:38:56;9.60;99.90
19968;DHT22;10145;49.152;9.282;2024-02-15T01:41:21;9.60;99.90
19968;DHT22;10145;49.152;9.282;2024-02-15T01:43:47;9.70;99.90
19968;DHT22;10145;49.152;9.282;2024-02-15T01:46:14;9.70;99.90
19968;DHT22;10145;49.152;9.282;2024-02-15T01:48:41;9.60;99.90
19968;DHT22;10145;49.152;9.282;2024-02-15T01:51:08;9.50;99.90
19968;DHT22;10145;49.152;9.282;2024-02-15T01:53:35;9.50;99.90
19968;DHT22;10145;49.152;9.282;2024-02-15T01:56:01;9.50;99.90
19968;DHT22;10145;49.152;9.282;2024-02-15T01:58:27;9.50;99.90
19968;DHT22;10145;49.152;9.282;2024-02-15T02:00:56;9.50;99.90
19968;DHT22;10145;49.152;9.282;2024-02-15T02:03:22;9.50;99.90
19968;DHT22;10145;49.152;9.282;2024-02-15T02:05:48;9.60;99.90
19968;DHT22;10145;49.152;9.282;2024-02-15T02:08:13;9.70;99.90
19968;DHT22;10145;49.152;9.282;2024-02-15T02:10:40;9.90;99.90
19968;DHT22;10145;49.152;9.282;2024-02-15T02:13:06;9.90;99.90
19968;DHT22;10145;49.152;9.282;2024-02-15T02:15:32;9.90;99.90
19968;DHT22;10145;49.152;9.282;2024-02-15T02:17:58;9.90;99.90
19968;DHT22;10145;49.152;9.282;2024-02-15T02:20:25;9.80;99.90
19968;DHT22;10145;49.152;9.282;2024-02-15T02:22:53;9.70;99.90
19968;DHT22;10145;49.152;9.282;2024-02-15T02:25:20;9.60;99.90
19968;DHT22;10145;49.152;9.282;2024-02-15T02:27:47;9.60;99.90
19968;DHT22;10145;49.152;9.282;2024-02-15T02:30:15;9.50;99.90
19968;DHT22;10145;49.152;9.282;2024-02-15T02:32:42;9.60;99.90
19968;DHT22;10145;49.152;9.282;2024-02-15T02:35:08;9.40;99.90
19968;DHT22;10145;49.152;9.282;2024-02-15T02:37:37;9.40;99.90
19968;DHT22;10145;49.152;9.282;2024-02-15T02:40:06;9.40;99.90
19968;DHT22;10145;49.152;9.282;2024-02-15T02:42:51;9.30;99.90
19968;DHT22;10145;49.152;9.282;2024-02-15T02:45:17;9.30;99.90
19968;DHT22;10145;49.152;9.282;2024-02-15T02:47:46;9.30;99.90
19968;DHT22;10145;49.152;9.282;2024-02-15T02:50:12;9.30;99.90
19968;DHT22;10145;49.152;9.282;2024-02-15T02:52:38;9.20;99.90
19968;DHT22;10145;49.152;9.282;2024-02-15T02:55:05;9.20;99.90
19968;DHT22;10145;49.152;9.282;2024-02-15T02:57:34;9.20;99.90
19968;DHT22;10145;49.152;9.282;2024-02-15T03:00:02;9.30;99.90
19968;DHT22;10145;49.152;9.282;2024-02-15T03:02:36;9.30;99.90
19968;DHT22;10145;49.152;9.282;2024-02-15T03:05:05;9.40;99.90
19968;DHT22;10145;49.152;9.282;2024-02-15T03:07:35;9.30;99.90
19968;DHT22;10145;49.152;9.282;2024-02-15T03:10:04;9.40;99.90
19968;DHT22;10145;49.152;9.282;2024-02-15T03:12:33;9.40;99.90
19968;DHT22;10145;49.152;9.282;2024-02-15T03:15:01;9.50;99.90
19968;DHT22;10145;49.152;9.282;2024-02-15T03:17:27;9.50;99.90
19968;DHT22;10145;49.152;9.282;2024-02-15T03:19:52;9.50;99.90
19968;DHT22;10145;49.152;9.282;2024-02-15T03:22:18;9.50;99.90
19968;DHT22;10145;49.152;9.282;2024-02-15T03:24:44;9.60;99.90
19968;DHT22;10145;49.152;9.282;2024-02-15T03:27:09;9.60;99.90
19968;DHT22;10145;49.152;9.282;2024-02-15T03:29:35;9.60;99.90
19968;DHT22;10145;49.152;9.282;2024-02-15T03:32:02;9.60;99.90
19968;DHT22;10145;49.152;9.282;2024-02-15T03:34:29;9.60;99.90
19968;DHT22;10145;49.152;9.282;2024-02-15T03:36:56;9.50;99.90
19968;DHT22;10145;49.152;9.282;2024-02-15T03:39:22;9.50;99.90
19968;DHT22;10145;49.152;9.282;2024-02-15T03:41:49;9.50;99.90
19968;DHT22;10145;49.152;9.282;2024-02-15T03:44:14;9.50;99.90
19968;DHT22;10145;49.152;9.282;2024-02-15T03:46:40;9.50;99.90
19968;DHT22;10145;49.152;9.282;2024-02-15T03:49:06;9.50;99.90
19968;DHT22;10145;49.152;9.282;2024-02-15T03:51:34;9.50;99.90
19968;DHT22;10145;49.152;9.282;2024-02-15T03:53:59;9.50;99.90
19968;DHT22;10145;49.152;9.282;2024-02-15T03:56:25;9.50;99.90
19968;DHT22;10145;49.152;9.282;2024-02-15T03:58:50;9.50;99.90
19968;DHT22;10145;49.152;9.282;2024-02-15T04:01:16;9.50;99.90
19968;DHT22;10145;49.152;9.282;2024-02-15T04:03:42;9.50;99.90
19968;DHT22;10145;49.152;9.282;2024-02-15T04:06:08;9.60;99.90
19968;DHT22;10145;49.152;9.282;2024-02-15T04:08:35;9.60;99.90
19968;DHT22;10145;49.152;9.282;2024-02-15T04:11:04;9.60;99.90
19968;DHT22;10145;49.152;9.282;2024-02-15T04:13:31;9.60;99.90
19968;DHT22;10145;49.152;9.282;2024-02-15T04:15:57;9.60;99.90
19968;DHT22;10145;49.152;9.282;2024-02-15T04:18:23;9.60;99.90
19968;DHT22;10145;49.152;9.282;2024-02-15T04:20:49;9.60;99.90
19968;DHT22;10145;49.152;9.282;2024-02-15T04:23:14;9.60;99.90
19968;DHT22;10145;49.152;9.282;2024-02-15T04:25:40;9.60;99.90
19968;DHT22;10145;49.152;9.282;2024-02-15T04:28:06;9.70;99.90
19968;DHT22;10145;49.152;9.282;2024-02-15T04:30:34;9.70;99.90
19968;DHT22;10145;49.152;9.282;2024-02-15T04:33:00;9.60;99.90
19968;DHT22;10145;49.152;9.282;2024-02-15T04:35:26;9.60;99.90
19968;DHT22;10145;49.152;9.282;2024-02-15T04:37:53;9.60;99.90
19968;DHT22;10145;49.152;9.282;2024-02-15T04:40:19;9.60;99.90
19968;DHT22;10145;49.152;9.282;2024-02-15T04:42:44;9.60;99.90
19968;DHT22;10145;49.152;9.282;2024-02-15T04:45:12;9.60;99.90
19968;DHT22;10145;49.152;9.282;2024-02-15T04:47:40;9.60;99.90
19968;DHT22;10145;49.152;9.282;2024-02-15T04:50:07;9.60;99.90
19968;DHT22;10145;49.152;9.282;2024-02-15T04:52:33;9.60;99.90
19968;DHT22;10145;49.152;9.282;2024-02-15T04:54:58;9.70;99.90
19968;DHT22;10145;49.152;9.282;2024-02-15T04:57:25;9.60;99.90
19968;DHT22;10145;49.152;9.282;2024-02-15T04:59:56;9.70;99.90
19968;DHT22;10145;49.152;9.282;2024-02-15T05:02:22;9.70;99.90
19968;DHT22;10145;49.152;9.282;2024-02-15T05:04:52;9.70;99.90
19968;DHT22;10145;49.152;9.282;2024-02-15T05:07:22;9.70;99.90
19968;DHT22;10145;49.152;9.282;2024-02-15T05:09:51;9.70;99.90
19968;DHT22;10145;49.152;9.282;2024-02-15T05:12:24;9.70;99.90
19968;DHT22;10145;49.152;9.282;2024-02-15T05:14:50;9.80;99.90
19968;DHT22;10145;49.152;9.282;2024-02-15T05:17:19;9.90;99.90
19968;DHT22;10145;49.152;9.282;2024-02-15T05:19:44;9.90;99.90
19968;DHT22;10145;49.152;9.282;2024-02-15T05:22:10;9.90;99.90
19968;DHT22;10145;49.152;9.282;2024-02-15T05:24:36;9.90;99.90
19968;DHT22;10145;49.152;9.282;2024-02-15T05:27:04;9.90;99.90
19968;DHT22;10145;49.152;9.282;2024-02-15T05:29:30;9.90;99.90
19968;DHT22;10145;49.152;9.282;2024-02-15T05:31:59;9.90;99.90
19968;DHT22;10145;49.152;9.282;2024-02-15T05:34:25;9.80;99.90
19968;DHT22;10145;49.152;9.282;2024-02-15T05:36:50;9.80;99.90
19968;DHT22;10145;49.152;9.282;2024-02-15T05:39:17;9.80;99.90
19968;DHT22;10145;49.152;9.282;2024-02-15T05:41:45;9.70;99.90
19968;DHT22;10145;49.152;9.282;2024-02-15T05:44:11;9.80;99.90
19968;DHT22;10145;49.152;9.282;2024-02-15T05:46:37;9.80;99.90
19968;DHT22;10145;49.152;9.282;2024-02-15T05:49:04;9.80;99.90
19968;DHT22;10145;49.152;9.282;2024-02-15T05:51:30;9.80;99.90
19968;DHT22;10145;49.152;9.282;2024-02-15T05:53:56;9.80;99.90
19968;DHT22;10145;49.152;9.282;2024-02-15T05:56:23;9.80;99.90
19968;DHT22;10145;49.152;9.282;2024-02-15T05:58:49;9.80;99.90
19968;DHT22;10145;49.152;9.282;2024-02-15T06:01:14;9.70;99.90
19968;DHT22;10145;49.152;9.282;2024-02-15T06:03:40;9.90;99.90
19968;DHT22;10145;49.152;9.282;2024-02-15T06:06:09;9.80;99.90
19968;DHT22;10145;49.152;9.282;2024-02-15T06:08:37;9.80;99.90
19968;DHT22;10145;49.152;9.282;2024-02-15T06:11:03;10.00;99.90
19968;DHT22;10145;49.152;9.282;2024-02-15T06:13:30;9.80;99.90
19968;DHT22;10145;49.152;9.282;2024-02-15T06:15:56;9.70;99.90
19968;DHT22;10145;49.152;9.282;2024-02-15T06:18:22;9.70;99.90
19968;DHT22;10145;49.152;9.282;2024-02-15T06:20:50;9.70;99.90
19968;DHT22;10145;49.152;9.282;2024-02-15T06:23:17;9.70;99.90
19968;DHT22;10145;49.152;9.282;2024-02-15T06:25:44;9.70;99.90
19968;DHT22;10145;49.152;9.282;2024-02-15T06:28:09;9.70;99.90
19968;DHT22;10145;49.152;9.282;2024-02-15T06:30:53;9.90;99.90
19968;DHT22;10145;49.152;9.282;2024-02-15T06:33:38;9.70;99.90
19968;DHT22;10145;49.152;9.282;2024-02-15T06:36:22;9.70;99.90
19968;DHT22;10145;49.152;9.282;2024-02-15T06:39:06;9.80;99.90
19968;DHT22;10145;49.152;9.282;2024-02-15T06:41:50;9.70;99.90
19968;DHT22;10145;49.152;9.282;2024-02-15T06:44:16;9.70;99.90
19968;DHT22;10145;49.152;9.282;2024-02-15T06:46:42;9.80;99.90
19968;DHT22;10145;49.152;9.282;2024-02-15T06:49:08;9.80;99.90
19968;DHT22;10145;49.152;9.282;2024-02-15T06:51:34;9.80;99.90
19968;DHT22;10145;49.152;9.282;2024-02-15T06:53:59;9.80;99.90
19968;DHT22;10145;49.152;9.282;2024-02-15T06:56:25;9.80;99.90
19968;DHT22;10145;49.152;9.282;2024-02-15T06:58:50;9.90;99.90
19968;DHT22;10145;49.152;9.282;2024-02-15T07:01:16;9.90;99.90
19968;DHT22;10145;49.152;9.282;2024-02-15T07:03:43;9.90;99.90
19968;DHT22;10145;49.152;9.282;2024-02-15T07:06:10;10.00;99.90
19968;DHT22;10145;49.152;9.282;2024-02-15T07:08:39;10.00;99.90
19968;DHT22;10145;49.152;9.282;2024-02-15T07:11:07;10.10;99.90
19968;DHT22;10145;49.152;9.282;2024-02-15T07:13:35;10.20;99.90
19968;DHT22;10145;49.152;9.282;2024-02-15T07:16:01;10.30;99.90
19968;DHT22;10145;49.152;9.282;2024-02-15T07:18:27;10.40;99.90
19968;DHT22;10145;49.152;9.282;2024-02-15T07:20:52;10.50;99.90
19968;DHT22;10145;49.152;9.282;2024-02-15T07:23:18;10.60;99.90
19968;DHT22;10145;49.152;9.282;2024-02-15T07:25:44;10.70;99.90
19968;DHT22;10145;49.152;9.282;2024-02-15T07:28:14;10.80;99.90
19968;DHT22;10145;49.152;9.282;2024-02-15T07:30:39;10.90;99.90
19968;DHT22;10145;49.152;9.282;2024-02-15T07:33:05;11.00;99.90
19968;DHT22;10145;49.152;9.282;2024-02-15T07:35:32;11.10;99.90
19968;DHT22;10145;49.152;9.282;2024-02-15T07:37:58;11.20;99.90
19968;DHT22;10145;49.152;9.282;2024-02-15T07:40:26;11.30;99.90
19968;DHT22;10145;49.152;9.282;2024-02-15T07:42:56;11.30;99.90
19968;DHT22;10145;49.152;9.282;2024-02-15T07:45:22;11.40;99.90
19968;DHT22;10145;49.152;9.282;2024-02-15T07:47:47;11.40;99.90
19968;DHT22;10145;49.152;9.282;2024-02-15T07:50:18;11.50;99.90
19968;DHT22;10145;49.152;9.282;2024-02-15T07:52:47;11.60;99.90
19968;DHT22;10145;49.152;9.282;2024-02-15T07:55:13;11.60;99.90
19968;DHT22;10145;49.152;9.282;2024-02-15T07:57:39;11.70;99.90
19968;DHT22;10145;49.152;9.282;2024-02-15T08:00:05;11.80;99.90
19968;DHT22;10145;49.152;9.282;2024-02-15T08:02:39;11.90;99.90
19968;DHT22;10145;49.152;9.282;2024-02-15T08:05:09;12.10;99.90
19968;DHT22;10145;49.152;9.282;2024-02-15T08:07:41;12.00;99.90
19968;DHT22;10145;49.152;9.282;2024-02-15T08:10:07;12.10;99.90
19968;DHT22;10145;49.152;9.282;2024-02-15T08:12:46;12.20;99.90
19968;DHT22;10145;49.152;9.282;2024-02-15T08:15:14;12.30;99.90
19968;DHT22;10145;49.152;9.282;2024-02-15T08:17:39;12.40;99.90
19968;DHT22;10145;49.152;9.282;2024-02-15T08:20:15;12.40;99.90
19968;DHT22;10145;49.152;9.282;2024-02-15T08:22:46;12.40;99.90
19968;DHT22;10145;49.152;9.282;2024-02-15T08:25:13;12.50;99.90
19968;DHT22;10145;49.152;9.282;2024-02-15T08:27:42;12.50;99.90
19968;DHT22;10145;49.152;9.282;2024-02-15T08:30:10;12.60;99.90
19968;DHT22;10145;49.152;9.282;2024-02-15T08:32:37;12.60;99.90
19968;DHT22;10145;49.152;9.282;2024-02-15T08:35:03;12.80;99.90
19968;DHT22;10145;49.152;9.282;2024-02-15T08:37:30;12.70;99.90
19968;DHT22;10145;49.152;9.282;2024-02-15T08:39:57;12.90;99.90
19968;DHT22;10145;49.152;9.282;2024-02-15T08:42:22;12.80;99.90
19968;DHT22;10145;49.152;9.282;2024-02-15T08:44:50;12.80;99.90
19968;DHT22;10145;49.152;9.282;2024-02-15T08:47:15;12.80;99.90
19968;DHT22;10145;49.152;9.282;2024-02-15T08:49:41;12.90;99.90
19968;DHT22;10145;49.152;9.282;2024-02-15T08:52:06;12.90;99.90
19968;DHT22;10145;49.152;9.282;2024-02-15T08:54:33;12.90;99.90
19968;DHT22;10145;49.152;9.282;2024-02-15T08:56:59;12.90;99.90
19968;DHT22;10145;49.152;9.282;2024-02-15T08:59:26;12.90;99.90
19968;DHT22;10145;49.152;9.282;2024-02-15T09:01:53;13.10;99.90
19968;DHT22;10145;49.152;9.282;2024-02-15T09:04:20;12.90;99.90
19968;DHT22;10145;49.152;9.282;2024-02-15T09:06:46;12.90;99.90
19968;DHT22;10145;49.152;9.282;2024-02-15T09:09:12;12.80;99.90
19968;DHT22;10145;49.152;9.282;2024-02-15T09:11:38;12.70;99.90
19968;DHT22;10145;49.152;9.282;2024-02-15T09:14:03;12.70;99.90
19968;DHT22;10145;49.152;9.282;2024-02-15T09:16:29;12.70;99.90
19968;DHT22;10145;49.152;9.282;2024-02-15T09:18:56;12.50;99.90
19968;DHT22;10145;49.152;9.282;2024-02-15T09:21:26;12.40;99.90
19968;DHT22;10145;49.152;9.282;2024-02-15T09:23:53;12.30;99.90
19968;DHT22;10145;49.152;9.282;2024-02-15T09:26:19;12.30;99.90
19968;DHT22;10145;49.152;9.282;2024-02-15T09:28:45;12.30;99.90
19968;DHT22;10145;49.152;9.282;2024-02-15T09:31:12;12.30;99.90
19968;DHT22;10145;49.152;9.282;2024-02-15T09:33:39;12.30;99.90
19968;DHT22;10145;49.152;9.282;2024-02-15T09:36:05;12.30;99.90
19968;DHT22;10145;49.152;9.282;2024-02-15T09:38:30;12.30;99.90
19968;DHT22;10145;49.152;9.282;2024-02-15T09:40:56;12.30;99.90
19968;DHT22;10145;49.152;9.282;2024-02-15T09:43:22;12.30;99.90
19968;DHT22;10145;49.152;9.282;2024-02-15T09:45:54;12.30;99.90
19968;DHT22;10145;49.152;9.282;2024-02-15T09:48:20;12.30;99.90
19968;DHT22;10145;49.152;9.282;2024-02-15T09:50:49;12.30;99.90
19968;DHT22;10145;49.152;9.282;2024-02-15T09:53:21;12.30;99.90
19968;DHT22;10145;49.152;9.282;2024-02-15T09:55:47;12.30;99.90
19968;DHT22;10145;49.152;9.282;2024-02-15T09:58:14;12.40;99.90
19968;DHT22;10145;49.152;9.282;2024-02-15T10:00:40;12.40;99.90
19968;DHT22;10145;49.152;9.282;2024-02-15T10:03:06;12.30;99.90
19968;DHT22;10145;49.152;9.282;2024-02-15T10:05:32;12.40;99.90
19968;DHT22;10145;49.152;9.282;2024-02-15T10:07:58;12.40;99.90
19968;DHT22;10145;49.152;9.282;2024-02-15T10:10:27;12.40;99.90
19968;DHT22;10145;49.152;9.282;2024-02-15T10:12:54;12.50;99.90
19968;DHT22;10145;49.152;9.282;2024-02-15T10:15:31;12.70;99.90
19968;DHT22;10145;49.152;9.282;2024-02-15T10:17:58;12.80;99.90
19968;DHT22;10145;49.152;9.282;2024-02-15T10:20:24;12.90;99.90
19968;DHT22;10145;49.152;9.282;2024-02-15T10:23:11;12.90;99.90
19968;DHT22;10145;49.152;9.282;2024-02-15T10:25:38;12.90;99.90
19968;DHT22;10145;49.152;9.282;2024-02-15T10:28:20;13.00;99.90
19968;DHT22;10145;49.152;9.282;2024-02-15T10:30:45;13.00;99.90
19968;DHT22;10145;49.152;9.282;2024-02-15T10:33:26;13.20;99.90
19968;DHT22;10145;49.152;9.282;2024-02-15T10:36:10;13.20;99.90
19968;DHT22;10145;49.152;9.282;2024-02-15T10:38:39;13.30;99.90
19968;DHT22;10145;49.152;9.282;2024-02-15T10:41:06;13.30;99.90
19968;DHT22;10145;49.152;9.282;2024-02-15T10:43:35;13.50;99.90
19968;DHT22;10145;49.152;9.282;2024-02-15T10:46:03;13.50;99.90
19968;DHT22;10145;49.152;9.282;2024-02-15T10:48:29;13.60;99.90
19968;DHT22;10145;49.152;9.282;2024-02-15T10:50:59;13.70;99.90
19968;DHT22;10145;49.152;9.282;2024-02-15T10:53:30;13.80;99.90
19968;DHT22;10145;49.152;9.282;2024-02-15T10:58:32;13.90;99.90
19968;DHT22;10145;49.152;9.282;2024-02-15T11:01:02;14.00;99.90
19968;DHT22;10145;49.152;9.282;2024-02-15T11:03:35;14.00;99.90
19968;DHT22;10145;49.152;9.282;2024-02-15T11:06:02;14.10;99.90
19968;DHT22;10145;49.152;9.282;2024-02-15T11:08:30;14.20;99.90
19968;DHT22;10145;49.152;9.282;2024-02-15T11:10:57;14.40;99.90
19968;DHT22;10145;49.152;9.282;2024-02-15T11:13:24;14.40;99.90
19968;DHT22;10145;49.152;9.282;2024-02-15T11:15:50;14.70;99.90
19968;DHT22;10145;49.152;9.282;2024-02-15T11:18:45;14.70;99.90
19968;DHT22;10145;49.152;9.282;2024-02-15T11:21:12;14.70;99.90
19968;DHT22;10145;49.152;9.282;2024-02-15T11:23:38;14.80;99.90
19968;DHT22;10145;49.152;9.282;2024-02-15T11:26:04;14.90;99.90
19968;DHT22;10145;49.152;9.282;2024-02-15T11:28:37;15.00;99.90
19968;DHT22;10145;49.152;9.282;2024-02-15T11:31:06;15.10;99.90
19968;DHT22;10145;49.152;9.282;2024-02-15T11:33:33;15.20;99.90
19968;DHT22;10145;49.152;9.282;2024-02-15T11:36:05;15.40;99.90
19968;DHT22;10145;49.152;9.282;2024-02-15T11:38:32;15.40;99.90
19968;DHT22;10145;49.152;9.282;2024-02-15T11:41:01;15.50;99.90
19968;DHT22;10145;49.152;9.282;2024-02-15T11:46:14;15.80;99.90
19968;DHT22;10145;49.152;9.282;2024-02-15T11:48:39;15.80;99.90
19968;DHT22;10145;49.152;9.282;2024-02-15T11:51:06;15.80;99.90
19968;DHT22;10145;49.152;9.282;2024-02-15T11:53:37;15.80;99.90
19968;DHT22;10145;49.152;9.282;2024-02-15T11:56:03;15.80;99.90
19968;DHT22;10145;49.152;9.282;2024-02-15T11:58:33;15.80;99.90
19968;DHT22;10145;49.152;9.282;2024-02-15T12:01:17;15.90;99.90
19968;DHT22;10145;49.152;9.282;2024-02-15T12:04:01;15.90;99.90
19968;DHT22;10145;49.152;9.282;2024-02-15T12:06:45;16.10;99.90
19968;DHT22;10145;49.152;9.282;2024-02-15T12:09:29;16.10;99.90
19968;DHT22;10145;49.152;9.282;2024-02-15T12:12:13;16.00;99.90
19968;DHT22;10145;49.152;9.282;2024-02-15T12:15:01;15.90;99.90
19968;DHT22;10145;49.152;9.282;2024-02-15T12:17:45;15.90;99.90
19968;DHT22;10145;49.152;9.282;2024-02-15T12:20:29;15.90;99.90
19968;DHT22;10145;49.152;9.282;2024-02-15T12:22:54;15.90;99.90
19968;DHT22;10145;49.152;9.282;2024-02-15T12:25:20;15.90;99.90
19968;DHT22;10145;49.152;9.282;2024-02-15T12:27:53;15.90;99.90
19968;DHT22;10145;49.152;9.282;2024-02-15T12:30:19;16.00;99.90
19968;DHT22;10145;49.152;9.282;2024-02-15T12:32:49;16.10;99.90
19968;DHT22;10145;49.152;9.282;2024-02-15T12:35:20;16.10;99.90
19968;DHT22;10145;49.152;9.282;2024-02-15T12:37:46;16.30;99.90
19968;DHT22;10145;49.152;9.282;2024-02-15T12:40:13;16.30;99.90
19968;DHT22;10145;49.152;9.282;2024-02-15T12:42:46;16.40;99.90
19968;DHT22;10145;49.152;9.282;2024-02-15T12:45:20;16.50;99.90
19968;DHT22;10145;49.152;9.282;2024-02-15T12:47:52;16.50;99.90
19968;DHT22;10145;49.152;9.282;2024-02-15T12:50:19;16.60;99.90
19968;DHT22;10145;49.152;9.282;2024-02-15T12:52:47;16.80;99.90
19968;DHT22;10145;49.152;9.282;2024-02-15T12:55:19;16.90;99.90
19968;DHT22;10145;49.152;9.282;2024-02-15T12:57:48;16.90;99.90
19968;DHT22;10145;49.152;9.282;2024-02-15T13:00:20;17.00;99.90
19968;DHT22;10145;49.152;9.282;2024-02-15T13:02:48;17.20;99.90
19968;DHT22;10145;49.152;9.282;2024-02-15T13:05:15;17.40;99.90
19968;DHT22;10145;49.152;9.282;2024-02-15T13:07:40;17.20;99.90
19968;DHT22;10145;49.152;9.282;2024-02-15T13:10:07;17.30;99.90
19968;DHT22;10145;49.152;9.282;2024-02-15T13:12:36;17.20;99.90
19968;DHT22;10145;49.152;9.282;2024-02-15T13:15:04;17.40;99.90
19968;DHT22;10145;49.152;9.282;2024-02-15T13:17:30;17.50;99.90
19968;DHT22;10145;49.152;9.282;2024-02-15T13:19:56;17.40;99.90
19968;DHT22;10145;49.152;9.282;2024-02-15T13:22:28;17.50;99.90
19968;DHT22;10145;49.152;9.282;2024-02-15T13:24:54;17.70;99.90
19968;DHT22;10145;49.152;9.282;2024-02-15T13:27:21;18.00;99.90
19968;DHT22;10145;49.152;9.282;2024-02-15T13:29:48;17.90;99.90
19968;DHT22;10145;49.152;9.282;2024-02-15T13:32:14;17.80;99.90
19968;DHT22;10145;49.152;9.282;2024-02-15T13:34:42;17.80;99.90
19968;DHT22;10145;49.152;9.282;2024-02-15T13:37:08;17.80;99.90
19968;DHT22;10145;49.152;9.282;2024-02-15T13:39:33;17.70;99.90
19968;DHT22;10145;49.152;9.282;2024-02-15T13:42:00;17.80;99.90
19968;DHT22;10145;49.152;9.282;2024-02-15T13:44:26;17.90;99.90
19968;DHT22;10145;49.152;9.282;2024-02-15T13:46:52;17.80;99.90
19968;DHT22;10145;49.152;9.282;2024-02-15T13:49:23;17.90;99.90
19968;DHT22;10145;49.152;9.282;2024-02-15T13:51:49;17.80;99.90
19968;DHT22;10145;49.152;9.282;2024-02-15T13:54:17;17.60;99.90
19968;DHT22;10145;49.152;9.282;2024-02-15T13:56:43;17.70;99.90
19968;DHT22;10145;49.152;9.282;2024-02-15T13:59:09;17.70;99.90
19968;DHT22;10145;49.152;9.282;2024-02-15T14:01:34;17.80;99.90
19968;DHT22;10145;49.152;9.282;2024-02-15T14:04:00;17.80;99.90
19968;DHT22;10145;49.152;9.282;2024-02-15T14:06:26;18.00;99.90
19968;DHT22;10145;49.152;9.282;2024-02-15T14:08:51;17.90;99.90
19968;DHT22;10145;49.152;9.282;2024-02-15T14:11:17;17.90;99.90
19968;DHT22;10145;49.152;9.282;2024-02-15T14:13:43;17.70;99.90
19968;DHT22;10145;49.152;9.282;2024-02-15T14:16:08;17.80;99.90
19968;DHT22;10145;49.152;9.282;2024-02-15T14:18:34;17.90;99.90
19968;DHT22;10145;49.152;9.282;2024-02-15T14:21:00;17.90;99.90
19968;DHT22;10145;49.152;9.282;2024-02-15T14:23:26;17.90;99.90
19968;DHT22;10145;49.152;9.282;2024-02-15T14:25:53;17.90;99.90
19968;DHT22;10145;49.152;9.282;2024-02-15T14:28:19;17.90;99.90
19968;DHT22;10145;49.152;9.282;2024-02-15T14:30:44;17.80;99.90
19968;DHT22;10145;49.152;9.282;2024-02-15T14:33:29;17.80;99.90
19968;DHT22;10145;49.152;9.282;2024-02-15T14:35:55;17.90;99.90
19968;DHT22;10145;49.152;9.282;2024-02-15T14:38:21;18.00;99.90
19968;DHT22;10145;49.152;9.282;2024-02-15T14:40:49;17.90;99.90
19968;DHT22;10145;49.152;9.282;2024-02-15T14:43:19;17.80;99.90
19968;DHT22;10145;49.152;9.282;2024-02-15T14:45:46;17.80;99.90
19968;DHT22;10145;49.152;9.282;2024-02-15T14:48:13;17.70;99.90
19968;DHT22;10145;49.152;9.282;2024-02-15T14:50:42;17.50;99.90
19968;DHT22;10145;49.152;9.282;2024-02-15T14:53:08;17.60;99.90
19968;DHT22;10145;49.152;9.282;2024-02-15T14:55:34;17.60;99.90
19968;DHT22;10145;49.152;9.282;2024-02-15T14:58:00;17.60;99.90
19968;DHT22;10145;49.152;9.282;2024-02-15T15:00:26;17.40;99.90
19968;DHT22;10145;49.152;9.282;2024-02-15T15:02:53;17.40;99.90
19968;DHT22;10145;49.152;9.282;2024-02-15T15:05:22;17.40;99.90
19968;DHT22;10145;49.152;9.282;2024-02-15T15:08:06;17.30;99.90
19968;DHT22;10145;49.152;9.282;2024-02-15T15:10:50;17.30;99.90
19968;DHT22;10145;49.152;9.282;2024-02-15T15:13:34;17.20;99.90
19968;DHT22;10145;49.152;9.282;2024-02-15T15:16:01;17.10;99.90
19968;DHT22;10145;49.152;9.282;2024-02-15T15:18:33;17.00;99.90
19968;DHT22;10145;49.152;9.282;2024-02-15T15:20:59;16.90;99.90
19968;DHT22;10145;49.152;9.282;2024-02-15T15:23:26;16.80;99.90
19968;DHT22;10145;49.152;9.282;2024-02-15T15:25:52;16.80;99.90
19968;DHT22;10145;49.152;9.282;2024-02-15T15:28:17;16.60;99.90
19968;DHT22;10145;49.152;9.282;2024-02-15T15:30:44;16.60;99.90
19968;DHT22;10145;49.152;9.282;2024-02-15T15:33:15;16.30;99.90
19968;DHT22;10145;49.152;9.282;2024-02-15T15:35:40;16.30;99.90
19968;DHT22;10145;49.152;9.282;2024-02-15T15:38:06;16.20;99.90
19968;DHT22;10145;49.152;9.282;2024-02-15T15:40:32;16.10;99.90
19968;DHT22;10145;49.152;9.282;2024-02-15T15:42:58;15.90;99.90
19968;DHT22;10145;49.152;9.282;2024-02-15T15:45:23;15.80;99.90
19968;DHT22;10145;49.152;9.282;2024-02-15T15:47:50;15.80;99.90